sensor_id;sensor_type;location;lat;lon;timestamp;P1;durP1;ratioP1;P2;durP2;ratioP2
41952;SDS011;63613;28.200;112.870;2022-10-16T00:01:39;113.28;;;93.93;;
41952;SDS011;63613;28.200;112.870;2022-10-16T00:04:06;110.28;;;98.20;;
41952;SDS011;63613;28.200;112.870;2022-10-16T00:06:34;111.55;;;99.35;;
41952;SDS011;63613;28.200;112.870;2022-10-16T00:09:01;115.22;;;101.13;;
41952;SDS011;63613;28.200;112.870;2022-10-16T00:11:30;109.20;;;93.63;;
41952;SDS011;63613;28.200;112.870;2022-10-16T00:14:00;107.25;;;90.95;;
41952;SDS011;63613;28.200;112.870;2022-10-16T00:16:33;109.32;;;91.00;;
41952;SDS011;63613;28.200;112.870;2022-10-16T00:19:00;111.15;;;99.05;;
41952;SDS011;63613;28.200;112.870;2022-10-16T00:21:28;109.25;;;93.30;;
41952;SDS011;63613;28.200;112.870;2022-10-16T00:24:06;106.82;;;94.50;;
41952;SDS011;63613;28.200;112.870;2022-10-16T00:26:35;101.78;;;88.65;;
41952;SDS011;63613;28.200;112.870;2022-10-16T00:29:03;106.97;;;91.45;;
41952;SDS011;63613;28.200;112.870;2022-10-16T00:31:31;99.72;;;88.43;;
41952;SDS011;63613;28.200;112.870;2022-10-16T00:33:58;105.95;;;91.53;;
41952;SDS011;63613;28.200;112.870;2022-10-16T00:36:26;109.28;;;91.47;;
41952;SDS011;63613;28.200;112.870;2022-10-16T00:38:53;103.43;;;92.05;;
41952;SDS011;63613;28.200;112.870;2022-10-16T00:41:23;111.57;;;94.57;;
41952;SDS011;63613;28.200;112.870;2022-10-16T00:43:52;110.50;;;94.78;;
41952;SDS011;63613;28.200;112.870;2022-10-16T00:46:25;96.32;;;83.68;;
41952;SDS011;63613;28.200;112.870;2022-10-16T00:51:41;109.72;;;96.75;;
41952;SDS011;63613;28.200;112.870;2022-10-16T00:54:20;102.70;;;89.95;;
41952;SDS011;63613;28.200;112.870;2022-10-16T00:57:06;104.35;;;93.00;;
41952;SDS011;63613;28.200;112.870;2022-10-16T00:59:35;114.85;;;97.95;;
41952;SDS011;63613;28.200;112.870;2022-10-16T01:02:06;108.18;;;94.55;;
41952;SDS011;63613;28.200;112.870;2022-10-16T01:04:37;106.57;;;87.90;;
41952;SDS011;63613;28.200;112.870;2022-10-16T01:15:21;95.88;;;82.53;;
41952;SDS011;63613;28.200;112.870;2022-10-16T01:18:01;84.32;;;74.53;;
41952;SDS011;63613;28.200;112.870;2022-10-16T01:20:34;92.20;;;81.05;;
41952;SDS011;63613;28.200;112.870;2022-10-16T01:29:18;96.03;;;83.85;;
41952;SDS011;63613;28.200;112.870;2022-10-16T01:31:49;95.05;;;83.43;;
41952;SDS011;63613;28.200;112.870;2022-10-16T01:34:25;84.53;;;72.30;;
41952;SDS011;63613;28.200;112.870;2022-10-16T01:37:02;89.65;;;79.90;;
41952;SDS011;63613;28.200;112.870;2022-10-16T01:39:42;87.15;;;77.13;;
41952;SDS011;63613;28.200;112.870;2022-10-16T01:42:22;98.03;;;86.90;;
41952;SDS011;63613;28.200;112.870;2022-10-16T01:44:54;92.53;;;81.75;;
41952;SDS011;63613;28.200;112.870;2022-10-16T01:47:25;91.90;;;81.63;;
41952;SDS011;63613;28.200;112.870;2022-10-16T01:49:53;86.03;;;75.38;;
41952;SDS011;63613;28.200;112.870;2022-10-16T01:52:24;90.70;;;79.30;;
41952;SDS011;63613;28.200;112.870;2022-10-16T01:54:54;86.25;;;76.32;;
41952;SDS011;63613;28.200;112.870;2022-10-16T01:57:23;90.88;;;80.65;;
41952;SDS011;63613;28.200;112.870;2022-10-16T01:59:52;94.32;;;81.50;;
41952;SDS011;63613;28.200;112.870;2022-10-16T02:02:24;85.18;;;73.63;;
41952;SDS011;63613;28.200;112.870;2022-10-16T02:04:57;89.00;;;73.88;;
41952;SDS011;63613;28.200;112.870;2022-10-16T02:07:29;89.05;;;72.68;;
41952;SDS011;63613;28.200;112.870;2022-10-16T02:09:57;74.60;;;66.28;;
41952;SDS011;63613;28.200;112.870;2022-10-16T02:12:26;79.55;;;66.65;;
41952;SDS011;63613;28.200;112.870;2022-10-16T02:14:58;81.10;;;70.43;;
41952;SDS011;63613;28.200;112.870;2022-10-16T02:17:25;72.90;;;62.30;;
41952;SDS011;63613;28.200;112.870;2022-10-16T02:19:53;65.18;;;56.15;;
41952;SDS011;63613;28.200;112.870;2022-10-16T02:22:24;79.72;;;65.80;;
41952;SDS011;63613;28.200;112.870;2022-10-16T02:25:03;78.97;;;69.13;;
41952;SDS011;63613;28.200;112.870;2022-10-16T02:27:41;66.72;;;56.15;;
41952;SDS011;63613;28.200;112.870;2022-10-16T02:30:42;77.03;;;64.68;;
41952;SDS011;63613;28.200;112.870;2022-10-16T02:33:13;66.65;;;57.22;;
41952;SDS011;63613;28.200;112.870;2022-10-16T02:35:43;65.25;;;53.88;;
41952;SDS011;63613;28.200;112.870;2022-10-16T02:38:12;68.50;;;56.55;;
41952;SDS011;63613;28.200;112.870;2022-10-16T02:40:42;52.83;;;46.22;;
41952;SDS011;63613;28.200;112.870;2022-10-16T02:43:09;60.13;;;52.72;;
41952;SDS011;63613;28.200;112.870;2022-10-16T02:45:56;73.25;;;59.28;;
41952;SDS011;63613;28.200;112.870;2022-10-16T02:48:23;56.25;;;49.03;;
41952;SDS011;63613;28.200;112.870;2022-10-16T02:50:50;59.47;;;51.80;;
41952;SDS011;63613;28.200;112.870;2022-10-16T02:53:17;63.03;;;51.13;;
41952;SDS011;63613;28.200;112.870;2022-10-16T02:55:44;58.72;;;51.28;;
41952;SDS011;63613;28.200;112.870;2022-10-16T02:58:12;52.65;;;42.08;;
41952;SDS011;63613;28.200;112.870;2022-10-16T03:00:39;59.83;;;50.03;;
41952;SDS011;63613;28.200;112.870;2022-10-16T03:03:06;48.80;;;41.20;;
41952;SDS011;63613;28.200;112.870;2022-10-16T03:05:33;49.92;;;40.83;;
41952;SDS011;63613;28.200;112.870;2022-10-16T03:08:00;43.60;;;38.72;;
41952;SDS011;63613;28.200;112.870;2022-10-16T03:10:28;50.00;;;42.30;;
41952;SDS011;63613;28.200;112.870;2022-10-16T03:13:15;59.80;;;47.22;;
41952;SDS011;63613;28.200;112.870;2022-10-16T03:15:42;58.38;;;48.90;;
41952;SDS011;63613;28.200;112.870;2022-10-16T03:18:12;51.03;;;42.22;;
41952;SDS011;63613;28.200;112.870;2022-10-16T03:20:40;52.30;;;44.10;;
41952;SDS011;63613;28.200;112.870;2022-10-16T03:23:08;49.55;;;43.13;;
41952;SDS011;63613;28.200;112.870;2022-10-16T03:25:35;64.97;;;45.40;;
41952;SDS011;63613;28.200;112.870;2022-10-16T03:28:02;49.90;;;36.58;;
41952;SDS011;63613;28.200;112.870;2022-10-16T03:30:29;51.33;;;40.55;;
41952;SDS011;63613;28.200;112.870;2022-10-16T03:32:57;53.88;;;38.22;;
41952;SDS011;63613;28.200;112.870;2022-10-16T03:35:24;52.88;;;39.70;;
41952;SDS011;63613;28.200;112.870;2022-10-16T03:37:51;51.60;;;41.55;;
41952;SDS011;63613;28.200;112.870;2022-10-16T03:40:18;52.42;;;41.67;;
41952;SDS011;63613;28.200;112.870;2022-10-16T03:42:46;48.33;;;39.58;;
41952;SDS011;63613;28.200;112.870;2022-10-16T03:45:13;42.67;;;35.83;;
41952;SDS011;63613;28.200;112.870;2022-10-16T03:47:40;43.90;;;36.53;;
41952;SDS011;63613;28.200;112.870;2022-10-16T03:50:07;45.47;;;38.33;;
41952;SDS011;63613;28.200;112.870;2022-10-16T03:52:55;52.30;;;42.30;;
41952;SDS011;63613;28.200;112.870;2022-10-16T03:55:22;53.70;;;42.33;;
41952;SDS011;63613;28.200;112.870;2022-10-16T03:57:49;60.00;;;42.92;;
41952;SDS011;63613;28.200;112.870;2022-10-16T04:00:43;58.03;;;45.05;;
41952;SDS011;63613;28.200;112.870;2022-10-16T04:03:15;47.17;;;36.50;;
41952;SDS011;63613;28.200;112.870;2022-10-16T04:05:44;50.70;;;38.22;;
41952;SDS011;63613;28.200;112.870;2022-10-16T04:08:11;51.45;;;40.72;;
41952;SDS011;63613;28.200;112.870;2022-10-16T04:10:38;46.38;;;35.20;;
41952;SDS011;63613;28.200;112.870;2022-10-16T04:13:05;45.50;;;34.03;;
41952;SDS011;63613;28.200;112.870;2022-10-16T04:15:32;43.83;;;35.08;;
41952;SDS011;63613;28.200;112.870;2022-10-16T04:18:00;42.85;;;37.33;;
41952;SDS011;63613;28.200;112.870;2022-10-16T04:20:27;45.25;;;34.33;;
41952;SDS011;63613;28.200;112.870;2022-10-16T04:22:55;44.55;;;35.60;;
41952;SDS011;63613;28.200;112.870;2022-10-16T04:25:22;47.00;;;37.50;;
41952;SDS011;63613;28.200;112.870;2022-10-16T04:27:52;45.75;;;33.25;;
41952;SDS011;63613;28.200;112.870;2022-10-16T04:30:20;41.92;;;31.35;;
41952;SDS011;63613;28.200;112.870;2022-10-16T04:32:48;49.70;;;37.05;;
41952;SDS011;63613;28.200;112.870;2022-10-16T04:35:18;58.03;;;42.95;;
41952;SDS011;63613;28.200;112.870;2022-10-16T04:37:47;73.97;;;53.17;;
41952;SDS011;63613;28.200;112.870;2022-10-16T04:40:17;130.20;;;86.47;;
41952;SDS011;63613;28.200;112.870;2022-10-16T04:42:44;117.35;;;80.38;;
41952;SDS011;63613;28.200;112.870;2022-10-16T04:45:11;96.70;;;65.45;;
41952;SDS011;63613;28.200;112.870;2022-10-16T04:47:38;79.65;;;53.30;;
41952;SDS011;63613;28.200;112.870;2022-10-16T04:50:05;65.15;;;48.13;;
41952;SDS011;63613;28.200;112.870;2022-10-16T04:52:33;70.55;;;44.72;;
41952;SDS011;63613;28.200;112.870;2022-10-16T04:55:00;63.50;;;42.70;;
41952;SDS011;63613;28.200;112.870;2022-10-16T04:57:28;52.63;;;39.85;;
41952;SDS011;63613;28.200;112.870;2022-10-16T05:00:01;56.70;;;37.85;;
41952;SDS011;63613;28.200;112.870;2022-10-16T05:02:29;47.83;;;35.30;;
41952;SDS011;63613;28.200;112.870;2022-10-16T05:05:17;45.42;;;33.88;;
41952;SDS011;63613;28.200;112.870;2022-10-16T05:07:47;45.90;;;33.80;;
41952;SDS011;63613;28.200;112.870;2022-10-16T05:10:15;42.88;;;32.25;;
41952;SDS011;63613;28.200;112.870;2022-10-16T05:12:42;42.95;;;31.63;;
41952;SDS011;63613;28.200;112.870;2022-10-16T05:15:10;42.90;;;31.75;;
41952;SDS011;63613;28.200;112.870;2022-10-16T05:17:37;43.53;;;29.50;;
41952;SDS011;63613;28.200;112.870;2022-10-16T05:20:04;36.83;;;27.92;;
41952;SDS011;63613;28.200;112.870;2022-10-16T05:22:32;39.63;;;30.88;;
41952;SDS011;63613;28.200;112.870;2022-10-16T05:24:59;38.42;;;28.85;;
41952;SDS011;63613;28.200;112.870;2022-10-16T05:27:26;38.25;;;29.05;;
41952;SDS011;63613;28.200;112.870;2022-10-16T05:29:53;37.22;;;28.52;;
41952;SDS011;63613;28.200;112.870;2022-10-16T05:32:20;39.15;;;29.45;;
41952;SDS011;63613;28.200;112.870;2022-10-16T05:34:47;36.85;;;29.00;;
41952;SDS011;63613;28.200;112.870;2022-10-16T05:37:14;36.45;;;27.48;;
41952;SDS011;63613;28.200;112.870;2022-10-16T05:39:43;36.08;;;26.42;;
41952;SDS011;63613;28.200;112.870;2022-10-16T05:42:10;33.88;;;28.27;;
41952;SDS011;63613;28.200;112.870;2022-10-16T05:44:37;38.63;;;30.55;;
41952;SDS011;63613;28.200;112.870;2022-10-16T05:47:25;38.17;;;30.55;;
41952;SDS011;63613;28.200;112.870;2022-10-16T05:49:52;43.40;;;31.08;;
41952;SDS011;63613;28.200;112.870;2022-10-16T05:52:19;37.38;;;26.33;;
41952;SDS011;63613;28.200;112.870;2022-10-16T05:54:46;36.38;;;26.65;;
41952;SDS011;63613;28.200;112.870;2022-10-16T05:57:13;43.03;;;28.92;;
41952;SDS011;63613;28.200;112.870;2022-10-16T05:59:43;40.88;;;29.48;;
41952;SDS011;63613;28.200;112.870;2022-10-16T06:02:17;40.85;;;28.77;;
41952;SDS011;63613;28.200;112.870;2022-10-16T06:04:52;43.33;;;29.48;;
41952;SDS011;63613;28.200;112.870;2022-10-16T06:07:20;39.03;;;28.60;;
41952;SDS011;63613;28.200;112.870;2022-10-16T06:09:49;42.00;;;30.08;;
41952;SDS011;63613;28.200;112.870;2022-10-16T06:12:18;38.72;;;25.85;;
41952;SDS011;63613;28.200;112.870;2022-10-16T06:14:45;40.50;;;30.98;;
41952;SDS011;63613;28.200;112.870;2022-10-16T06:17:15;38.60;;;28.63;;
41952;SDS011;63613;28.200;112.870;2022-10-16T06:19:42;42.35;;;27.83;;
41952;SDS011;63613;28.200;112.870;2022-10-16T06:22:10;45.17;;;29.98;;
41952;SDS011;63613;28.200;112.870;2022-10-16T06:24:37;35.05;;;26.98;;
41952;SDS011;63613;28.200;112.870;2022-10-16T06:27:05;41.92;;;29.38;;
41952;SDS011;63613;28.200;112.870;2022-10-16T06:29:34;39.58;;;28.30;;
41952;SDS011;63613;28.200;112.870;2022-10-16T06:32:01;41.95;;;30.52;;
41952;SDS011;63613;28.200;112.870;2022-10-16T06:34:28;39.92;;;27.92;;
41952;SDS011;63613;28.200;112.870;2022-10-16T06:36:55;42.85;;;30.13;;
41952;SDS011;63613;28.200;112.870;2022-10-16T06:39:22;35.50;;;26.75;;
41952;SDS011;63613;28.200;112.870;2022-10-16T06:41:49;39.03;;;28.48;;
41952;SDS011;63613;28.200;112.870;2022-10-16T06:44:36;41.58;;;27.83;;
41952;SDS011;63613;28.200;112.870;2022-10-16T06:47:03;41.38;;;30.33;;
41952;SDS011;63613;28.200;112.870;2022-10-16T06:49:30;37.78;;;29.73;;
41952;SDS011;63613;28.200;112.870;2022-10-16T06:51:57;39.15;;;28.75;;
41952;SDS011;63613;28.200;112.870;2022-10-16T06:54:25;41.58;;;30.17;;
41952;SDS011;63613;28.200;112.870;2022-10-16T06:56:53;47.47;;;31.65;;
41952;SDS011;63613;28.200;112.870;2022-10-16T06:59:20;39.33;;;28.75;;
41952;SDS011;63613;28.200;112.870;2022-10-16T07:01:48;39.25;;;27.73;;
41952;SDS011;63613;28.200;112.870;2022-10-16T07:04:17;41.00;;;28.92;;
41952;SDS011;63613;28.200;112.870;2022-10-16T07:07:05;36.95;;;28.05;;
41952;SDS011;63613;28.200;112.870;2022-10-16T07:09:32;36.35;;;28.63;;
41952;SDS011;63613;28.200;112.870;2022-10-16T07:11:59;36.90;;;29.80;;
41952;SDS011;63613;28.200;112.870;2022-10-16T07:14:26;39.75;;;27.33;;
41952;SDS011;63613;28.200;112.870;2022-10-16T07:16:53;31.30;;;24.90;;
41952;SDS011;63613;28.200;112.870;2022-10-16T07:19:20;33.75;;;26.98;;
41952;SDS011;63613;28.200;112.870;2022-10-16T07:21:47;34.05;;;26.63;;
41952;SDS011;63613;28.200;112.870;2022-10-16T07:24:15;37.67;;;25.63;;
41952;SDS011;63613;28.200;112.870;2022-10-16T07:26:44;34.38;;;25.58;;
41952;SDS011;63613;28.200;112.870;2022-10-16T07:29:15;37.17;;;26.42;;
41952;SDS011;63613;28.200;112.870;2022-10-16T07:31:45;33.55;;;26.10;;
41952;SDS011;63613;28.200;112.870;2022-10-16T07:34:13;30.63;;;25.48;;
41952;SDS011;63613;28.200;112.870;2022-10-16T07:36:41;36.78;;;27.17;;
41952;SDS011;63613;28.200;112.870;2022-10-16T07:39:08;34.47;;;24.38;;
41952;SDS011;63613;28.200;112.870;2022-10-16T07:41:36;37.55;;;26.73;;
41952;SDS011;63613;28.200;112.870;2022-10-16T07:44:03;31.88;;;24.88;;
41952;SDS011;63613;28.200;112.870;2022-10-16T07:46:30;34.63;;;26.75;;
41952;SDS011;63613;28.200;112.870;2022-10-16T07:48:59;41.20;;;29.35;;
41952;SDS011;63613;28.200;112.870;2022-10-16T07:51:54;33.20;;;25.67;;
41952;SDS011;63613;28.200;112.870;2022-10-16T07:54:24;36.10;;;27.90;;
41952;SDS011;63613;28.200;112.870;2022-10-16T07:56:51;35.80;;;27.05;;
41952;SDS011;63613;28.200;112.870;2022-10-16T07:59:18;35.88;;;26.33;;
41952;SDS011;63613;28.200;112.870;2022-10-16T08:01:46;30.98;;;25.30;;
41952;SDS011;63613;28.200;112.870;2022-10-16T08:04:14;35.65;;;24.60;;
41952;SDS011;63613;28.200;112.870;2022-10-16T08:06:42;36.35;;;26.63;;
41952;SDS011;63613;28.200;112.870;2022-10-16T08:09:09;37.53;;;27.65;;
41952;SDS011;63613;28.200;112.870;2022-10-16T08:11:56;35.85;;;26.08;;
41952;SDS011;63613;28.200;112.870;2022-10-16T08:14:23;37.17;;;26.42;;
41952;SDS011;63613;28.200;112.870;2022-10-16T08:16:50;37.85;;;26.77;;
41952;SDS011;63613;28.200;112.870;2022-10-16T08:19:18;37.85;;;28.00;;
41952;SDS011;63613;28.200;112.870;2022-10-16T08:21:48;29.52;;;24.48;;
41952;SDS011;63613;28.200;112.870;2022-10-16T08:24:15;41.28;;;27.10;;
41952;SDS011;63613;28.200;112.870;2022-10-16T08:26:42;31.48;;;24.90;;
41952;SDS011;63613;28.200;112.870;2022-10-16T08:29:09;35.25;;;26.58;;
41952;SDS011;63613;28.200;112.870;2022-10-16T08:31:56;33.80;;;24.42;;
41952;SDS011;63613;28.200;112.870;2022-10-16T08:34:23;33.17;;;24.77;;
41952;SDS011;63613;28.200;112.870;2022-10-16T08:36:52;33.85;;;25.35;;
41952;SDS011;63613;28.200;112.870;2022-10-16T08:39:20;34.08;;;25.13;;
41952;SDS011;63613;28.200;112.870;2022-10-16T08:45:00;35.53;;;24.25;;
41952;SDS011;63613;28.200;112.870;2022-10-16T08:50:31;26.83;;;20.05;;
41952;SDS011;63613;28.200;112.870;2022-10-16T08:53:01;32.67;;;22.17;;
41952;SDS011;63613;28.200;112.870;2022-10-16T08:55:41;25.75;;;20.25;;
41952;SDS011;63613;28.200;112.870;2022-10-16T08:58:28;29.58;;;21.02;;
41952;SDS011;63613;28.200;112.870;2022-10-16T09:00:57;32.42;;;24.42;;
41952;SDS011;63613;28.200;112.870;2022-10-16T09:06:24;35.88;;;28.25;;
41952;SDS011;63613;28.200;112.870;2022-10-16T09:09:14;30.08;;;24.67;;
41952;SDS011;63613;28.200;112.870;2022-10-16T09:23:10;41.80;;;32.83;;
41952;SDS011;63613;28.200;112.870;2022-10-16T09:25:45;42.33;;;32.45;;
41952;SDS011;63613;28.200;112.870;2022-10-16T09:28:15;34.92;;;31.13;;
41952;SDS011;63613;28.200;112.870;2022-10-16T09:30:44;37.83;;;28.42;;
41952;SDS011;63613;28.200;112.870;2022-10-16T09:33:13;38.75;;;31.42;;
41952;SDS011;63613;28.200;112.870;2022-10-16T09:35:43;39.72;;;29.15;;
41952;SDS011;63613;28.200;112.870;2022-10-16T09:43:54;40.85;;;31.55;;
41952;SDS011;63613;28.200;112.870;2022-10-16T09:46:33;41.42;;;31.45;;
41952;SDS011;63613;28.200;112.870;2022-10-16T09:49:04;41.90;;;30.75;;
41952;SDS011;63613;28.200;112.870;2022-10-16T09:51:44;39.55;;;30.67;;
41952;SDS011;63613;28.200;112.870;2022-10-16T09:56:40;44.28;;;34.85;;
41952;SDS011;63613;28.200;112.870;2022-10-16T10:04:14;42.78;;;31.63;;
41952;SDS011;63613;28.200;112.870;2022-10-16T10:06:52;44.25;;;35.15;;
41952;SDS011;63613;28.200;112.870;2022-10-16T10:12:01;57.58;;;37.92;;
41952;SDS011;63613;28.200;112.870;2022-10-16T10:17:07;63.45;;;43.40;;
41952;SDS011;63613;28.200;112.870;2022-10-16T10:22:24;62.53;;;40.30;;
41952;SDS011;63613;28.200;112.870;2022-10-16T10:27:47;63.67;;;43.38;;
41952;SDS011;63613;28.200;112.870;2022-10-16T10:50:41;51.72;;;39.67;;
41952;SDS011;63613;28.200;112.870;2022-10-16T11:04:27;48.05;;;36.53;;
41952;SDS011;63613;28.200;112.870;2022-10-16T11:07:34;53.67;;;40.60;;
41952;SDS011;63613;28.200;112.870;2022-10-16T11:10:24;59.72;;;44.83;;
41952;SDS011;63613;28.200;112.870;2022-10-16T11:13:10;55.67;;;41.35;;
41952;SDS011;63613;28.200;112.870;2022-10-16T11:27:35;54.28;;;37.08;;
41952;SDS011;63613;28.200;112.870;2022-10-16T11:30:19;53.17;;;38.72;;
41952;SDS011;63613;28.200;112.870;2022-10-16T11:38:53;50.45;;;36.40;;
41952;SDS011;63613;28.200;112.870;2022-10-16T11:49:52;51.78;;;36.60;;
41952;SDS011;63613;28.200;112.870;2022-10-16T11:53:35;56.15;;;40.88;;
41952;SDS011;63613;28.200;112.870;2022-10-16T11:55:45;50.08;;;35.55;;
41952;SDS011;63613;28.200;112.870;2022-10-16T11:58:24;57.72;;;40.67;;
41952;SDS011;63613;28.200;112.870;2022-10-16T12:00:55;53.88;;;40.40;;
41952;SDS011;63613;28.200;112.870;2022-10-16T12:04:04;60.00;;;40.38;;
41952;SDS011;63613;28.200;112.870;2022-10-16T12:06:42;55.20;;;39.70;;
41952;SDS011;63613;28.200;112.870;2022-10-16T12:09:17;54.85;;;41.85;;
41952;SDS011;63613;28.200;112.870;2022-10-16T12:11:57;58.80;;;42.63;;
41952;SDS011;63613;28.200;112.870;2022-10-16T12:16:56;51.58;;;39.95;;
41952;SDS011;63613;28.200;112.870;2022-10-16T12:19:28;55.28;;;40.38;;
41952;SDS011;63613;28.200;112.870;2022-10-16T12:21:58;49.42;;;37.08;;
41952;SDS011;63613;28.200;112.870;2022-10-16T12:24:36;50.17;;;36.38;;
41952;SDS011;63613;28.200;112.870;2022-10-16T12:30:00;43.53;;;34.10;;
41952;SDS011;63613;28.200;112.870;2022-10-16T12:33:01;41.03;;;33.03;;
41952;SDS011;63613;28.200;112.870;2022-10-16T12:35:34;45.42;;;35.13;;
41952;SDS011;63613;28.200;112.870;2022-10-16T12:38:25;44.08;;;33.58;;
41952;SDS011;63613;28.200;112.870;2022-10-16T12:40:56;47.13;;;35.20;;
41952;SDS011;63613;28.200;112.870;2022-10-16T12:43:46;46.33;;;32.75;;
41952;SDS011;63613;28.200;112.870;2022-10-16T12:48:41;40.25;;;31.90;;
41952;SDS011;63613;28.200;112.870;2022-10-16T12:51:25;45.10;;;32.47;;
41952;SDS011;63613;28.200;112.870;2022-10-16T12:54:16;39.75;;;31.15;;
41952;SDS011;63613;28.200;112.870;2022-10-16T12:59:37;42.70;;;33.20;;
41952;SDS011;63613;28.200;112.870;2022-10-16T13:10:27;41.85;;;34.35;;
41952;SDS011;63613;28.200;112.870;2022-10-16T13:19:06;42.70;;;31.75;;
41952;SDS011;63613;28.200;112.870;2022-10-16T13:30:12;36.13;;;28.40;;
41952;SDS011;63613;28.200;112.870;2022-10-16T13:33:30;34.53;;;27.45;;
41952;SDS011;63613;28.200;112.870;2022-10-16T13:35:55;37.47;;;26.67;;
41952;SDS011;63613;28.200;112.870;2022-10-16T13:38:25;35.03;;;26.65;;
41952;SDS011;63613;28.200;112.870;2022-10-16T13:40:54;35.17;;;26.25;;
41952;SDS011;63613;28.200;112.870;2022-10-16T13:46:15;33.08;;;25.50;;
41952;SDS011;63613;28.200;112.870;2022-10-16T13:51:26;28.42;;;24.17;;
41952;SDS011;63613;28.200;112.870;2022-10-16T13:53:54;33.45;;;25.27;;
41952;SDS011;63613;28.200;112.870;2022-10-16T13:56:24;31.65;;;24.73;;
41952;SDS011;63613;28.200;112.870;2022-10-16T14:01:41;32.75;;;27.65;;
41952;SDS011;63613;28.200;112.870;2022-10-16T14:04:11;30.20;;;24.75;;
41952;SDS011;63613;28.200;112.870;2022-10-16T14:06:43;29.40;;;25.58;;
41952;SDS011;63613;28.200;112.870;2022-10-16T14:12:01;31.63;;;25.70;;
41952;SDS011;63613;28.200;112.870;2022-10-16T14:14:54;34.42;;;26.10;;
41952;SDS011;63613;28.200;112.870;2022-10-16T14:17:22;32.35;;;25.20;;
41952;SDS011;63613;28.200;112.870;2022-10-16T14:20:02;30.95;;;24.98;;
41952;SDS011;63613;28.200;112.870;2022-10-16T14:22:36;29.38;;;25.23;;
41952;SDS011;63613;28.200;112.870;2022-10-16T14:28:17;30.25;;;25.05;;
41952;SDS011;63613;28.200;112.870;2022-10-16T14:30:55;33.05;;;24.38;;
41952;SDS011;63613;28.200;112.870;2022-10-16T14:36:06;30.35;;;24.75;;
41952;SDS011;63613;28.200;112.870;2022-10-16T14:38:41;31.15;;;23.25;;
41952;SDS011;63613;28.200;112.870;2022-10-16T14:41:14;27.70;;;23.05;;
41952;SDS011;63613;28.200;112.870;2022-10-16T14:43:49;31.75;;;24.13;;
41952;SDS011;63613;28.200;112.870;2022-10-16T14:46:34;29.75;;;22.83;;
41952;SDS011;63613;28.200;112.870;2022-10-16T14:51:57;25.98;;;20.80;;
41952;SDS011;63613;28.200;112.870;2022-10-16T14:54:24;25.73;;;22.63;;
41952;SDS011;63613;28.200;112.870;2022-10-16T14:56:53;29.77;;;23.25;;
41952;SDS011;63613;28.200;112.870;2022-10-16T15:02:00;30.08;;;25.10;;
41952;SDS011;63613;28.200;112.870;2022-10-16T15:04:44;26.88;;;23.35;;
41952;SDS011;63613;28.200;112.870;2022-10-16T15:07:12;31.67;;;26.75;;
41952;SDS011;63613;28.200;112.870;2022-10-16T15:09:41;30.58;;;27.00;;
41952;SDS011;63613;28.200;112.870;2022-10-16T15:12:09;30.10;;;25.55;;
41952;SDS011;63613;28.200;112.870;2022-10-16T15:14:37;41.63;;;36.15;;
41952;SDS011;63613;28.200;112.870;2022-10-16T15:17:04;44.13;;;35.70;;
41952;SDS011;63613;28.200;112.870;2022-10-16T15:19:35;46.28;;;36.83;;
41952;SDS011;63613;28.200;112.870;2022-10-16T15:22:02;51.38;;;38.83;;
41952;SDS011;63613;28.200;112.870;2022-10-16T15:24:32;51.53;;;39.35;;
41952;SDS011;63613;28.200;112.870;2022-10-16T15:26:59;45.72;;;37.97;;
41952;SDS011;63613;28.200;112.870;2022-10-16T15:29:26;54.45;;;40.13;;
41952;SDS011;63613;28.200;112.870;2022-10-16T15:31:53;49.53;;;39.95;;
41952;SDS011;63613;28.200;112.870;2022-10-16T15:34:23;46.00;;;37.58;;
41952;SDS011;63613;28.200;112.870;2022-10-16T15:36:54;49.92;;;40.88;;
41952;SDS011;63613;28.200;112.870;2022-10-16T15:39:23;50.28;;;38.75;;
41952;SDS011;63613;28.200;112.870;2022-10-16T15:41:53;52.83;;;41.15;;
41952;SDS011;63613;28.200;112.870;2022-10-16T15:44:20;49.40;;;37.95;;
41952;SDS011;63613;28.200;112.870;2022-10-16T15:46:55;42.70;;;35.20;;
41952;SDS011;63613;28.200;112.870;2022-10-16T15:49:22;44.67;;;36.65;;
41952;SDS011;63613;28.200;112.870;2022-10-16T15:51:50;45.42;;;35.63;;
41952;SDS011;63613;28.200;112.870;2022-10-16T15:54:18;47.03;;;38.00;;
41952;SDS011;63613;28.200;112.870;2022-10-16T15:56:49;45.00;;;34.70;;
41952;SDS011;63613;28.200;112.870;2022-10-16T15:59:16;48.35;;;41.38;;
41952;SDS011;63613;28.200;112.870;2022-10-16T16:01:44;46.92;;;38.33;;
41952;SDS011;63613;28.200;112.870;2022-10-16T16:04:11;49.50;;;42.28;;
41952;SDS011;63613;28.200;112.870;2022-10-16T16:06:41;43.75;;;38.75;;
41952;SDS011;63613;28.200;112.870;2022-10-16T16:09:14;44.65;;;35.85;;
41952;SDS011;63613;28.200;112.870;2022-10-16T16:11:41;46.10;;;38.00;;
41952;SDS011;63613;28.200;112.870;2022-10-16T16:14:12;50.30;;;41.65;;
41952;SDS011;63613;28.200;112.870;2022-10-16T16:16:40;47.00;;;37.40;;
41952;SDS011;63613;28.200;112.870;2022-10-16T16:19:10;46.53;;;39.03;;
41952;SDS011;63613;28.200;112.870;2022-10-16T16:21:43;45.20;;;35.78;;
41952;SDS011;63613;28.200;112.870;2022-10-16T16:24:13;45.47;;;33.50;;
41952;SDS011;63613;28.200;112.870;2022-10-16T16:26:42;47.92;;;38.97;;
41952;SDS011;63613;28.200;112.870;2022-10-16T16:29:15;48.15;;;39.00;;
41952;SDS011;63613;28.200;112.870;2022-10-16T16:31:43;51.88;;;41.80;;
41952;SDS011;63613;28.200;112.870;2022-10-16T16:34:12;51.13;;;40.15;;
41952;SDS011;63613;28.200;112.870;2022-10-16T16:36:40;43.35;;;34.58;;
41952;SDS011;63613;28.200;112.870;2022-10-16T16:39:07;44.15;;;36.15;;
41952;SDS011;63613;28.200;112.870;2022-10-16T16:41:36;52.20;;;40.53;;
41952;SDS011;63613;28.200;112.870;2022-10-16T16:44:04;40.88;;;35.75;;
41952;SDS011;63613;28.200;112.870;2022-10-16T16:46:33;45.72;;;36.10;;
41952;SDS011;63613;28.200;112.870;2022-10-16T16:49:00;47.65;;;38.95;;
41952;SDS011;63613;28.200;112.870;2022-10-16T16:51:28;47.90;;;41.83;;
41952;SDS011;63613;28.200;112.870;2022-10-16T16:54:00;52.25;;;40.97;;
41952;SDS011;63613;28.200;112.870;2022-10-16T16:56:30;50.80;;;43.90;;
41952;SDS011;63613;28.200;112.870;2022-10-16T16:58:57;54.92;;;43.10;;
41952;SDS011;63613;28.200;112.870;2022-10-16T17:01:25;45.95;;;36.38;;
41952;SDS011;63613;28.200;112.870;2022-10-16T17:03:57;49.83;;;38.85;;
41952;SDS011;63613;28.200;112.870;2022-10-16T17:06:27;55.65;;;46.55;;
41952;SDS011;63613;28.200;112.870;2022-10-16T17:08:58;49.85;;;40.22;;
41952;SDS011;63613;28.200;112.870;2022-10-16T17:11:33;55.65;;;46.60;;
41952;SDS011;63613;28.200;112.870;2022-10-16T17:14:02;50.35;;;41.17;;
41952;SDS011;63613;28.200;112.870;2022-10-16T17:16:33;58.00;;;47.22;;